Time;durP1;ratioP1;P1;durP2;ratioP2;P2;SDS_P1;SDS_P2;PMS_P1;PMS_P2;Temp;Humidity;BMP_temperature;BMP_pressure;BME280_temperature;BME280_humidity;BME280_pressure;Samples;Min_cycle;Max_cycle;Signal;HPM_P1;HPM_P2
2023/12/14 00:01:20;;;;;;;26.75;10.15;;;-0.30;99.90;;;;;;5078971;28;20049;-71
2023/12/14 00:03:48;;;;;;;26.88;10.05;;;-0.20;99.90;;;;;;5087781;28;20056;-70
2023/12/14 00:06:16;;;;;;;20.40;9.90;;;-0.20;99.90;;;;;;5092970;28;20047;-62
2023/12/14 00:08:44;;;;;;;21.25;8.35;;;-0.20;99.90;;;;;;5089667;28;20318;-62
2023/12/14 00:11:12;;;;;;;24.58;9.15;;;-0.20;99.90;;;;;;5089881;28;20044;-73
2023/12/14 00:13:40;;;;;;;23.80;9.05;;;-0.30;99.90;;;;;;5090088;28;20054;-69
2023/12/14 00:16:09;;;;;;;26.70;9.37;;;-0.30;99.90;;;;;;5071981;28;20041;-69
2023/12/14 00:18:37;;;;;;;19.75;8.85;;;-0.30;99.90;;;;;;5085926;28;20301;-70
2023/12/14 00:21:05;;;;;;;24.48;9.18;;;-0.30;99.90;;;;;;5087892;28;20041;-70
2023/12/14 00:23:36;;;;;;;26.27;9.13;;;-0.30;99.90;;;;;;5087836;28;20037;-69
2023/12/14 00:26:04;;;;;;;19.10;9.48;;;-0.40;99.90;;;;;;5091883;28;20401;-64
2023/12/14 00:28:32;;;;;;;17.85;8.50;;;-0.40;99.90;;;;;;5089219;28;20363;-67
2023/12/14 00:31:01;;;;;;;24.73;10.07;;;-0.40;99.90;;;;;;5082497;28;20056;-67
2023/12/14 00:33:29;;;;;;;23.33;9.73;;;-0.40;99.90;;;;;;5075826;28;20044;-67
2023/12/14 00:35:57;;;;;;;27.13;10.23;;;-0.40;99.90;;;;;;5085610;28;20068;-64
2023/12/14 00:38:25;;;;;;;26.88;10.68;;;-0.40;99.90;;;;;;5090502;28;20060;-68
2023/12/14 00:40:52;;;;;;;25.67;9.77;;;-0.40;99.90;;;;;;5089683;28;20048;-62
2023/12/14 00:43:20;;;;;;;24.73;9.82;;;-0.40;99.90;;;;;;5089877;28;20044;-64
2023/12/14 00:45:48;;;;;;;31.17;9.32;;;-0.40;99.90;;;;;;5082259;28;20040;-62
2023/12/14 00:48:16;;;;;;;23.98;10.48;;;-0.40;99.90;;;;;;5076644;28;20040;-67
2023/12/14 00:50:44;;;;;;;23.95;9.23;;;-0.40;99.90;;;;;;5075206;28;20058;-65
2023/12/14 00:53:12;;;;;;;24.50;9.60;;;-0.40;99.90;;;;;;5086779;28;20062;-62
2023/12/14 00:55:40;;;;;;;28.05;10.63;;;-0.40;99.90;;;;;;5090565;28;20568;-64
2023/12/14 00:58:08;;;;;;;31.60;11.40;;;-0.40;99.90;;;;;;5086403;28;20040;-63
2023/12/14 01:00:36;;;;;;;22.52;11.93;;;-0.40;99.90;;;;;;5082859;28;20048;-63
2023/12/14 01:03:04;;;;;;;18.67;9.98;;;-0.40;99.90;;;;;;5071295;28;20051;-68
2023/12/14 01:05:32;;;;;;;27.30;10.45;;;-0.30;99.90;;;;;;5084585;28;20047;-62
2023/12/14 01:08:00;;;;;;;25.25;11.65;;;-0.30;99.90;;;;;;5088800;28;20052;-62
2023/12/14 01:10:28;;;;;;;27.63;12.35;;;-0.30;99.90;;;;;;5088349;28;20055;-63
2023/12/14 01:12:55;;;;;;;26.92;10.13;;;-0.20;99.90;;;;;;5090693;28;20067;-63
2023/12/14 01:15:23;;;;;;;22.00;9.75;;;-0.20;99.90;;;;;;5089368;28;20055;-65
2023/12/14 01:17:51;;;;;;;25.00;10.85;;;-0.20;99.90;;;;;;5089564;28;20048;-63
2023/12/14 01:20:19;;;;;;;21.38;9.45;;;-0.20;99.90;;;;;;5090001;28;20040;-63
2023/12/14 01:22:47;;;;;;;23.40;9.15;;;-0.20;99.90;;;;;;5088697;28;20051;-62
2023/12/14 01:25:15;;;;;;;25.77;9.48;;;-0.20;99.90;;;;;;5088335;28;20059;-68
2023/12/14 01:27:44;;;;;;;21.90;10.35;;;-0.10;99.90;;;;;;5087602;28;20040;-64
2023/12/14 01:30:12;;;;;;;21.50;9.65;;;-0.10;99.90;;;;;;5089534;28;20470;-62
2023/12/14 01:32:40;;;;;;;26.85;11.23;;;-0.10;99.90;;;;;;5080912;28;20040;-65
2023/12/14 01:35:09;;;;;;;22.77;9.93;;;0.00;99.90;;;;;;5085543;28;20036;-62
2023/12/14 01:37:39;;;;;;;23.88;10.52;;;0.00;99.90;;;;;;5087208;28;20047;-62
2023/12/14 01:40:07;;;;;;;23.55;10.95;;;0.10;99.90;;;;;;5089233;28;20044;-62
2023/12/14 01:42:35;;;;;;;26.75;13.20;;;0.20;99.90;;;;;;5089232;28;20063;-61
2023/12/14 01:45:05;;;;;;;24.88;11.40;;;0.20;99.90;;;;;;5086058;28;20040;-67
2023/12/14 01:47:33;;;;;;;27.30;11.20;;;0.20;99.90;;;;;;5073052;28;20509;-68
2023/12/14 01:50:00;;;;;;;29.65;11.18;;;0.30;99.90;;;;;;5086909;28;20040;-69
2023/12/14 01:52:29;;;;;;;21.58;9.90;;;0.40;99.90;;;;;;5098843;28;20645;-63
2023/12/14 01:54:58;;;;;;;24.33;11.00;;;0.40;99.90;;;;;;5088899;28;20048;-63
2023/12/14 01:57:26;;;;;;;25.80;10.90;;;0.40;99.90;;;;;;5069389;28;20048;-64
2023/12/14 01:59:54;;;;;;;26.88;10.65;;;0.50;99.90;;;;;;5086078;28;20063;-62
2023/12/14 02:02:22;;;;;;;23.90;10.68;;;0.50;99.90;;;;;;5087288;28;20036;-62
2023/12/14 02:04:50;;;;;;;25.05;10.15;;;0.50;99.90;;;;;;5094657;28;20397;-63
2023/12/14 02:07:18;;;;;;;24.58;10.93;;;0.60;99.90;;;;;;5092819;28;20037;-63
2023/12/14 02:09:46;;;;;;;21.05;10.00;;;0.60;99.90;;;;;;5086591;28;20067;-69
2023/12/14 02:12:13;;;;;;;25.73;11.30;;;0.70;99.90;;;;;;5087832;28;20516;-63
2023/12/14 02:14:41;;;;;;;22.83;9.88;;;0.70;99.90;;;;;;5092444;28;20044;-63
2023/12/14 02:17:09;;;;;;;22.85;9.95;;;0.70;99.90;;;;;;5085797;28;20058;-63
2023/12/14 02:19:36;;;;;;;24.00;9.52;;;0.70;99.90;;;;;;5088454;28;20497;-62
2023/12/14 02:22:04;;;;;;;25.45;10.45;;;0.80;99.90;;;;;;5088223;28;20501;-63
2023/12/14 02:24:33;;;;;;;24.35;9.95;;;0.80;99.90;;;;;;5085297;28;20047;-63
2023/12/14 02:27:01;;;;;;;25.98;10.35;;;0.80;99.90;;;;;;5083746;28;20063;-63
2023/12/14 02:29:31;;;;;;;24.35;10.00;;;0.80;99.90;;;;;;5084888;28;20040;-63
2023/12/14 02:31:58;;;;;;;21.85;10.57;;;0.90;99.90;;;;;;5081376;28;20044;-63
2023/12/14 02:34:26;;;;;;;25.90;10.65;;;0.90;99.90;;;;;;5087587;28;20047;-64
2023/12/14 02:36:54;;;;;;;26.75;11.00;;;0.90;99.90;;;;;;5087902;28;20055;-62
2023/12/14 02:39:22;;;;;;;31.08;10.60;;;1.00;99.90;;;;;;5091591;28;20040;-65
2023/12/14 02:41:50;;;;;;;20.35;9.82;;;1.00;99.90;;;;;;5088597;28;20056;-67
2023/12/14 02:44:17;;;;;;;32.45;10.73;;;1.00;99.90;;;;;;5087342;28;20501;-62
2023/12/14 02:46:45;;;;;;;25.90;9.50;;;1.00;99.90;;;;;;5086298;28;20062;-62
2023/12/14 02:49:13;;;;;;;19.45;9.10;;;1.00;99.90;;;;;;5087439;28;20051;-62
2023/12/14 02:51:41;;;;;;;21.10;9.40;;;1.10;99.90;;;;;;5087667;28;20051;-62
2023/12/14 02:54:09;;;;;;;22.95;9.73;;;1.10;99.90;;;;;;5087759;28;20048;-62
2023/12/14 02:56:37;;;;;;;28.15;11.25;;;1.10;99.90;;;;;;5083472;28;20064;-62
2023/12/14 02:59:05;;;;;;;25.83;10.85;;;1.10;99.90;;;;;;5093399;28;20048;-62
2023/12/14 03:01:33;;;;;;;24.35;10.88;;;1.10;99.90;;;;;;5096293;28;20044;-62
2023/12/14 03:04:00;;;;;;;32.08;10.85;;;1.10;99.90;;;;;;5095749;28;20044;-62
2023/12/14 03:06:28;;;;;;;24.83;11.52;;;1.20;99.90;;;;;;5073502;28;20044;-62
2023/12/14 03:08:56;;;;;;;33.15;11.80;;;1.20;99.90;;;;;;5082422;28;20051;-62
2023/12/14 03:11:25;;;;;;;32.72;10.48;;;1.20;99.90;;;;;;5069551;28;20060;-63
2023/12/14 03:13:53;;;;;;;26.55;11.43;;;1.30;99.90;;;;;;5087633;28;20055;-61
2023/12/14 03:16:21;;;;;;;35.20;11.93;;;1.30;99.90;;;;;;5085642;28;20043;-61
2023/12/14 03:18:52;;;;;;;27.10;11.00;;;1.30;99.90;;;;;;5079016;28;20067;-64
2023/12/14 03:21:20;;;;;;;30.40;11.52;;;1.40;99.90;;;;;;5079167;28;20039;-62
2023/12/14 03:23:49;;;;;;;29.85;10.45;;;1.40;99.90;;;;;;5086724;28;20409;-62
2023/12/14 03:26:16;;;;;;;24.50;10.75;;;1.40;99.90;;;;;;5087984;28;20452;-63
2023/12/14 03:28:44;;;;;;;29.55;10.13;;;1.40;99.90;;;;;;5086981;28;20055;-62
2023/12/14 03:31:13;;;;;;;26.20;10.77;;;1.40;99.90;;;;;;5087215;28;20043;-62
2023/12/14 03:33:41;;;;;;;23.75;10.20;;;1.40;99.90;;;;;;5086594;28;20051;-62
2023/12/14 03:36:09;;;;;;;25.65;9.55;;;1.50;99.90;;;;;;5086509;28;20044;-61
2023/12/14 03:38:37;;;;;;;28.35;9.95;;;1.50;99.90;;;;;;5084979;28;20059;-62
2023/12/14 03:41:05;;;;;;;24.67;9.93;;;1.50;99.90;;;;;;5087276;28;20048;-62
2023/12/14 03:43:33;;;;;;;27.67;9.65;;;1.50;99.90;;;;;;5079454;28;20044;-61
2023/12/14 03:46:00;;;;;;;24.20;11.25;;;1.50;99.90;;;;;;5087653;28;20052;-62
2023/12/14 03:48:28;;;;;;;26.13;10.82;;;1.60;99.90;;;;;;5090231;28;20051;-61
2023/12/14 03:50:56;;;;;;;20.90;9.23;;;1.60;99.90;;;;;;5069685;28;20062;-62
2023/12/14 03:53:24;;;;;;;23.23;10.43;;;1.60;99.90;;;;;;5087172;28;20044;-62
2023/12/14 03:55:54;;;;;;;26.65;10.48;;;1.60;99.90;;;;;;5086508;28;20056;-61
2023/12/14 03:58:22;;;;;;;24.77;10.30;;;1.60;99.90;;;;;;5105634;28;20036;-63
2023/12/14 04:00:50;;;;;;;24.67;9.85;;;1.60;99.90;;;;;;5093977;28;20048;-67
2023/12/14 04:03:18;;;;;;;33.63;10.35;;;1.60;99.90;;;;;;5081070;28;20039;-67
2023/12/14 04:05:46;;;;;;;24.42;9.18;;;1.60;99.90;;;;;;5077590;28;20493;-68
2023/12/14 04:08:14;;;;;;;27.80;9.50;;;1.70;99.90;;;;;;5086590;28;20702;-64
2023/12/14 04:10:42;;;;;;;24.02;9.00;;;1.70;99.90;;;;;;5084948;28;20174;-64
2023/12/14 04:13:09;;;;;;;20.90;9.32;;;1.70;99.90;;;;;;5086033;28;20199;-67
2023/12/14 04:15:37;;;;;;;26.17;10.52;;;1.70;99.90;;;;;;5085287;28;20055;-66
2023/12/14 04:18:08;;;;;;;26.20;9.52;;;1.70;99.90;;;;;;5087016;28;20408;-67
2023/12/14 04:20:36;;;;;;;23.85;9.10;;;1.70;99.90;;;;;;5072416;28;20051;-63
2023/12/14 04:23:03;;;;;;;29.13;9.55;;;1.70;99.90;;;;;;5090838;28;20051;-66
2023/12/14 04:25:31;;;;;;;23.38;9.45;;;1.70;99.90;;;;;;5113319;28;20048;-66
2023/12/14 04:27:59;;;;;;;20.02;9.13;;;1.70;99.90;;;;;;5097569;28;20066;-70
2023/12/14 04:30:27;;;;;;;30.20;12.27;;;1.70;99.90;;;;;;5092967;28;20052;-65
2023/12/14 04:32:55;;;;;;;22.45;8.90;;;1.70;99.90;;;;;;5082977;28;20556;-70
2023/12/14 04:35:23;;;;;;;17.27;9.05;;;1.80;99.90;;;;;;5086366;28;20047;-67
2023/12/14 04:37:50;;;;;;;21.20;9.63;;;1.80;99.90;;;;;;5092136;28;20044;-69
2023/12/14 04:40:19;;;;;;;23.13;9.25;;;1.80;99.90;;;;;;5092347;28;20051;-67
2023/12/14 04:42:47;;;;;;;18.73;9.32;;;1.80;99.90;;;;;;5078825;28;20048;-67
2023/12/14 04:45:16;;;;;;;22.48;9.18;;;1.80;99.90;;;;;;5092611;28;20039;-65
2023/12/14 04:47:44;;;;;;;21.43;9.10;;;1.80;99.90;;;;;;5094865;28;20498;-63
2023/12/14 04:50:12;;;;;;;19.58;9.75;;;1.80;99.90;;;;;;5093146;28;20288;-66
2023/12/14 04:52:42;;;;;;;21.20;9.70;;;1.90;99.90;;;;;;5089598;28;20050;-67
2023/12/14 04:55:09;;;;;;;;;;;1.90;99.90;;;;;;5101376;28;20044;-70
2023/12/14 04:57:37;;;;;;;24.17;10.15;;;1.90;99.90;;;;;;5093330;28;20297;-62
2023/12/14 05:00:05;;;;;;;25.00;9.93;;;1.90;99.90;;;;;;5092863;28;20504;-64
2023/12/14 05:02:33;;;;;;;20.58;9.70;;;1.90;99.90;;;;;;5093418;28;20055;-64
2023/12/14 05:05:02;;;;;;;22.90;10.15;;;1.90;99.90;;;;;;5093271;28;20047;-65
2023/12/14 05:07:30;;;;;;;25.40;11.10;;;1.90;99.90;;;;;;5092351;28;20056;-65
2023/12/14 05:09:58;;;;;;;23.73;10.05;;;2.00;99.90;;;;;;5093201;28;20044;-66
2023/12/14 05:12:26;;;;;;;26.65;11.38;;;2.00;99.90;;;;;;5092327;28;20055;-63
2023/12/14 05:14:54;;;;;;;25.73;10.52;;;1.90;99.90;;;;;;5091108;28;20051;-67
2023/12/14 05:17:22;;;;;;;23.67;10.27;;;2.00;99.90;;;;;;5091371;28;20044;-68
2023/12/14 05:19:50;;;;;;;23.73;9.57;;;2.00;99.90;;;;;;5091643;28;20194;-65
2023/12/14 05:22:17;;;;;;;21.48;9.52;;;2.00;99.90;;;;;;5092446;28;20058;-66
2023/12/14 05:24:47;;;;;;;18.98;9.55;;;2.10;99.90;;;;;;5098334;28;20044;-68
2023/12/14 05:27:14;;;;;;;19.17;9.45;;;2.10;99.90;;;;;;5092895;28;20063;-65
2023/12/14 05:29:42;;;;;;;25.08;10.00;;;2.10;99.90;;;;;;5091677;28;20047;-70
2023/12/14 05:32:11;;;;;;;19.33;9.18;;;2.10;99.90;;;;;;5092415;28;20044;-70
2023/12/14 05:34:39;;;;;;;16.15;8.32;;;2.10;99.90;;;;;;5092201;28;20044;-69
2023/12/14 05:37:07;;;;;;;18.50;9.10;;;2.10;99.90;;;;;;5092717;28;20055;-65
2023/12/14 05:39:35;;;;;;;22.73;9.43;;;2.10;99.90;;;;;;5092510;28;20044;-69
2023/12/14 05:42:03;;;;;;;16.77;9.05;;;2.10;99.90;;;;;;5091656;28;20405;-66
2023/12/14 05:44:30;;;;;;;20.52;9.00;;;2.10;99.90;;;;;;5092550;28;20044;-63
2023/12/14 05:46:58;;;;;;;22.05;9.55;;;2.20;99.90;;;;;;5090355;28;20516;-62
2023/12/14 05:49:26;;;;;;;20.25;9.38;;;2.20;99.90;;;;;;5080950;28;20040;-62
2023/12/14 05:51:53;;;;;;;29.30;10.60;;;2.20;99.90;;;;;;5088162;28;20067;-61
2023/12/14 05:54:21;;;;;;;26.33;11.52;;;2.20;99.90;;;;;;5089064;28;20436;-61
2023/12/14 05:56:49;;;;;;;21.08;10.52;;;2.20;99.90;;;;;;5109255;28;20055;-60
2023/12/14 05:59:17;;;;;;;26.75;9.57;;;2.20;99.90;;;;;;5092706;28;20044;-61
2023/12/14 06:01:45;;;;;;;20.85;9.15;;;2.20;99.90;;;;;;5086554;28;20043;-62
2023/12/14 06:04:13;;;;;;;22.83;9.05;;;2.20;99.90;;;;;;5080781;28;20059;-61
2023/12/14 06:06:41;;;;;;;19.58;8.85;;;2.20;99.90;;;;;;5078963;28;20045;-61
2023/12/14 06:09:09;;;;;;;17.38;9.10;;;2.40;99.90;;;;;;5083724;28;20478;-64
2023/12/14 06:11:37;;;;;;;27.25;10.55;;;2.20;99.90;;;;;;5085835;28;20040;-61
2023/12/14 06:14:05;;;;;;;25.33;9.68;;;2.30;99.90;;;;;;5104547;28;20548;-62
2023/12/14 06:16:33;;;;;;;29.42;10.13;;;2.30;99.90;;;;;;5084450;28;20048;-60
2023/12/14 06:19:01;;;;;;;22.92;9.18;;;2.20;99.90;;;;;;5083106;28;20051;-61
2023/12/14 06:21:29;;;;;;;22.05;9.15;;;2.30;99.90;;;;;;5086575;28;20055;-62
2023/12/14 06:23:58;;;;;;;23.33;9.52;;;2.30;99.90;;;;;;5092487;28;20048;-62
2023/12/14 06:26:26;;;;;;;21.02;9.95;;;2.30;99.90;;;;;;5096219;28;20042;-62
2023/12/14 06:28:54;;;;;;;24.05;8.88;;;2.30;99.90;;;;;;5088130;28;20048;-63
2023/12/14 06:31:22;;;;;;;22.33;9.48;;;2.30;99.90;;;;;;5087449;28;20036;-61
2023/12/14 06:33:50;;;;;;;23.80;9.57;;;2.40;99.90;;;;;;5085212;28;20047;-63
2023/12/14 06:36:18;;;;;;;21.40;8.50;;;2.40;99.90;;;;;;5102834;28;20802;-64
2023/12/14 06:38:46;;;;;;;21.38;8.80;;;2.40;99.90;;;;;;5084334;28;20063;-62
2023/12/14 06:41:24;;;;;;;23.77;9.23;;;2.40;99.90;;;;;;5067759;28;20052;-63
2023/12/14 06:43:52;;;;;;;20.58;8.48;;;2.50;99.90;;;;;;5074478;28;20068;-66
2023/12/14 06:46:21;;;;;;;20.38;7.88;;;2.50;99.90;;;;;;5064750;28;20048;-66
2023/12/14 06:48:50;;;;;;;22.10;8.43;;;2.50;99.90;;;;;;5072944;28;20055;-64
2023/12/14 06:51:19;;;;;;;21.08;8.43;;;2.50;99.90;;;;;;5076595;28;20059;-62
2023/12/14 06:53:47;;;;;;;20.65;8.00;;;2.50;99.90;;;;;;5092785;28;20056;-67
2023/12/14 06:56:15;;;;;;;20.48;8.27;;;2.50;99.90;;;;;;5096143;28;20052;-69
2023/12/14 06:58:44;;;;;;;20.75;8.15;;;2.60;99.90;;;;;;5079284;28;20516;-68
2023/12/14 07:01:17;;;;;;;16.45;7.97;;;2.60;99.90;;;;;;5084606;28;20580;-67
2023/12/14 07:03:46;;;;;;;25.52;9.00;;;2.60;99.90;;;;;;5082877;28;20044;-69
2023/12/14 07:06:15;;;;;;;18.70;7.18;;;2.60;99.90;;;;;;5084246;28;20044;-62
2023/12/14 07:08:44;;;;;;;21.52;7.28;;;2.70;99.90;;;;;;5087136;28;20051;-70
2023/12/14 07:11:12;;;;;;;18.13;7.68;;;2.70;99.90;;;;;;5086934;28;20055;-65
2023/12/14 07:13:40;;;;;;;19.00;7.85;;;2.70;99.90;;;;;;5087360;28;20036;-70
2023/12/14 07:16:17;;;;;;;19.40;8.38;;;2.70;99.90;;;;;;5083021;28;20040;-70
2023/12/14 07:18:45;;;;;;;17.17;6.38;;;2.70;99.90;;;;;;5081803;28;20044;-69
2023/12/14 07:21:13;;;;;;;16.17;7.05;;;2.70;99.90;;;;;;5077980;28;20044;-70
2023/12/14 07:23:41;;;;;;;14.13;6.45;;;2.70;99.90;;;;;;5090704;28;20047;-63
2023/12/14 07:26:09;;;;;;;17.27;6.55;;;2.70;99.90;;;;;;5083400;28;20063;-66
2023/12/14 07:28:37;;;;;;;21.80;7.53;;;2.70;99.90;;;;;;5086757;28;20036;-70
2023/12/14 07:31:05;;;;;;;19.48;7.28;;;2.80;99.90;;;;;;5080076;28;20329;-62
2023/12/14 07:33:33;;;;;;;24.08;7.57;;;2.80;99.90;;;;;;5071330;28;20052;-62
2023/12/14 07:36:01;;;;;;;31.92;10.18;;;2.80;99.90;;;;;;5081448;28;20048;-65
2023/12/14 07:38:29;;;;;;;19.67;8.55;;;2.80;99.90;;;;;;5069531;28;20679;-61
2023/12/14 07:40:58;;;;;;;19.05;7.55;;;2.80;99.90;;;;;;5078923;28;20044;-62
2023/12/14 07:43:26;;;;;;;21.88;9.90;;;2.80;99.90;;;;;;5084474;28;20054;-67
2023/12/14 07:45:54;;;;;;;28.65;8.70;;;2.80;99.90;;;;;;5080449;28;20052;-66
2023/12/14 07:48:21;;;;;;;25.08;8.15;;;2.90;99.90;;;;;;5082036;28;20048;-62
2023/12/14 07:50:49;;;;;;;19.00;6.60;;;2.90;99.90;;;;;;5070919;28;20041;-63
2023/12/14 07:53:17;;;;;;;21.23;8.10;;;2.90;99.90;;;;;;5079109;28;20483;-65
2023/12/14 07:55:46;;;;;;;29.83;8.63;;;2.90;99.90;;;;;;5089790;28;20040;-66
2023/12/14 07:58:13;;;;;;;26.80;7.82;;;2.90;99.90;;;;;;5086808;28;20048;-62
2023/12/14 08:00:41;;;;;;;22.10;7.35;;;3.00;99.90;;;;;;5086418;28;20598;-64
2023/12/14 08:03:09;;;;;;;22.75;7.07;;;3.00;99.90;;;;;;5088405;28;20046;-63
2023/12/14 08:05:37;;;;;;;23.77;8.13;;;3.00;99.90;;;;;;5080603;28;20040;-65
2023/12/14 08:08:05;;;;;;;17.88;6.85;;;3.10;99.90;;;;;;5086033;28;20048;-66
2023/12/14 08:10:33;;;;;;;17.92;6.55;;;3.10;99.90;;;;;;5086536;28;20052;-64
2023/12/14 08:13:01;;;;;;;15.07;5.68;;;3.10;99.90;;;;;;5086695;28;20039;-62
2023/12/14 08:15:29;;;;;;;13.15;5.30;;;3.10;99.90;;;;;;5090564;28;20052;-63
2023/12/14 08:17:57;;;;;;;14.55;5.07;;;3.20;99.90;;;;;;5090092;28;20051;-63
2023/12/14 08:20:25;;;;;;;13.25;4.95;;;3.20;99.90;;;;;;5071591;28;20048;-62
2023/12/14 08:22:53;;;;;;;13.88;4.90;;;3.20;99.90;;;;;;5094255;28;20397;-62
2023/12/14 08:25:21;;;;;;;14.98;5.15;;;3.20;99.90;;;;;;5090942;28;20048;-63
2023/12/14 08:27:51;;;;;;;12.10;4.45;;;3.20;99.90;;;;;;5083524;28;20063;-63
2023/12/14 08:30:20;;;;;;;12.25;5.15;;;3.30;99.90;;;;;;5090656;28;20051;-61
2023/12/14 08:32:48;;;;;;;11.10;4.78;;;3.30;99.90;;;;;;5088528;28;20059;-61
2023/12/14 08:35:16;;;;;;;14.15;5.05;;;3.40;99.90;;;;;;5084887;28;20406;-61
2023/12/14 08:37:44;;;;;;;14.45;5.78;;;3.30;99.90;;;;;;5088644;28;20044;-62
2023/12/14 08:40:12;;;;;;;11.48;4.60;;;3.40;99.90;;;;;;5090432;28;20510;-61
2023/12/14 08:42:40;;;;;;;14.65;4.65;;;3.40;99.90;;;;;;5096944;28;20048;-64
2023/12/14 08:45:08;;;;;;;13.80;4.50;;;3.40;99.90;;;;;;5090254;28;20069;-60
2023/12/14 08:47:38;;;;;;;14.05;4.32;;;3.50;99.90;;;;;;5090448;28;20040;-64
2023/12/14 08:50:07;;;;;;;13.40;4.47;;;3.50;99.90;;;;;;5087776;28;20043;-63
2023/12/14 08:52:35;;;;;;;10.35;4.10;;;3.50;99.90;;;;;;5089761;28;20501;-62
2023/12/14 08:55:04;;;;;;;16.70;4.47;;;3.60;99.90;;;;;;5089596;28;20056;-61
2023/12/14 08:57:32;;;;;;;14.40;4.40;;;3.60;99.90;;;;;;5090195;28;20056;-64
2023/12/14 09:00:00;;;;;;;18.98;4.65;;;3.60;99.90;;;;;;5090114;28;20040;-62
2023/12/14 09:02:28;;;;;;;16.20;5.07;;;3.60;99.90;;;;;;5082553;28;20043;-62
2023/12/14 09:04:56;;;;;;;16.73;4.90;;;3.70;99.90;;;;;;5075682;28;20063;-62
2023/12/14 09:07:24;;;;;;;21.48;4.82;;;3.70;99.90;;;;;;5071013;28;20049;-62
2023/12/14 09:09:51;;;;;;;18.75;4.95;;;3.70;99.90;;;;;;5085967;28;20055;-61
2023/12/14 09:12:19;;;;;;;10.43;4.15;;;3.70;99.90;;;;;;5090078;28;20052;-62
2023/12/14 09:14:47;;;;;;;10.10;4.10;;;3.70;99.90;;;;;;5091315;28;20052;-62
2023/12/14 09:17:15;;;;;;;14.10;5.07;;;3.70;99.90;;;;;;5090914;28;20051;-61
2023/12/14 09:19:43;;;;;;;18.38;4.90;;;3.70;99.90;;;;;;5084059;28;20052;-62
2023/12/14 09:22:11;;;;;;;13.27;4.45;;;3.80;99.90;;;;;;5089741;28;20056;-61
2023/12/14 09:24:39;;;;;;;13.60;4.82;;;3.80;99.90;;;;;;5088220;28;20500;-62
2023/12/14 09:27:06;;;;;;;13.57;4.82;;;3.80;99.90;;;;;;5104462;28;20044;-61
2023/12/14 09:29:34;;;;;;;13.77;5.00;;;3.80;99.90;;;;;;5102401;28;20040;-62
2023/12/14 09:32:02;;;;;;;16.55;5.65;;;3.80;99.90;;;;;;5088994;28;20062;-62
2023/12/14 09:34:30;;;;;;;11.05;4.97;;;3.90;99.90;;;;;;5081749;28;20040;-65
2023/12/14 09:36:58;;;;;;;12.73;5.60;;;3.90;99.90;;;;;;5069271;28;20172;-62
2023/12/14 09:39:27;;;;;;;12.05;3.90;;;4.00;99.90;;;;;;5087956;28;20126;-64
2023/12/14 09:42:04;;;;;;;11.18;4.57;;;4.00;99.90;;;;;;5089146;28;20048;-62
2023/12/14 09:44:32;;;;;;;11.23;5.30;;;4.00;99.90;;;;;;5087459;28;20059;-65
2023/12/14 09:47:02;;;;;;;11.57;4.45;;;4.10;99.90;;;;;;5089147;28;20040;-62
2023/12/14 09:49:30;;;;;;;11.73;3.90;;;4.10;99.90;;;;;;5096317;28;20048;-68
2023/12/14 09:51:59;;;;;;;11.05;4.30;;;4.20;99.90;;;;;;5087981;28;20063;-68
2023/12/14 09:54:28;;;;;;;13.60;3.63;;;4.20;99.90;;;;;;5088035;28;20055;-68
2023/12/14 09:56:56;;;;;;;11.90;3.75;;;4.20;99.90;;;;;;5071210;28;20040;-70
2023/12/14 09:59:25;;;;;;;12.85;3.67;;;4.30;99.90;;;;;;5091827;28;20053;-67
2023/12/14 10:01:53;;;;;;;12.50;3.67;;;4.30;99.90;;;;;;5080194;28;20056;-65
2023/12/14 10:04:21;;;;;;;12.75;3.67;;;4.30;99.90;;;;;;5089399;28;20032;-68
2023/12/14 10:06:49;;;;;;;8.68;4.20;;;4.40;99.90;;;;;;5068403;28;20328;-70
2023/12/14 10:09:23;;;;;;;12.45;4.22;;;4.50;99.90;;;;;;5087584;28;20648;-64
2023/12/14 10:12:06;;;;;;;12.82;4.30;;;4.50;99.90;;;;;;5110760;27;20040;-68
2023/12/14 10:14:34;;;;;;;9.85;3.45;;;4.60;99.90;;;;;;5087250;28;20390;-70
2023/12/14 10:17:22;;;;;;;8.63;3.72;;;4.60;99.90;;;;;;5101265;28;20047;-68
2023/12/14 10:19:50;;;;;;;11.90;4.18;;;4.70;99.90;;;;;;5076961;28;20647;-66
2023/12/14 10:22:18;;;;;;;14.05;4.55;;;4.70;99.90;;;;;;5093367;28;20044;-62
2023/12/14 10:24:47;;;;;;;14.00;4.13;;;4.70;99.90;;;;;;5087847;28;20044;-67
2023/12/14 10:27:16;;;;;;;12.50;4.32;;;4.70;99.90;;;;;;5085680;28;20406;-62
2023/12/14 10:29:46;;;;;;;9.73;5.90;;;4.70;99.90;;;;;;5088036;28;20040;-69
2023/12/14 10:32:14;;;;;;;17.40;5.47;;;4.70;99.90;;;;;;5086790;28;20059;-62
2023/12/14 10:34:42;;;;;;;13.27;4.65;;;4.70;99.90;;;;;;5082407;28;20060;-66
2023/12/14 10:37:12;;;;;;;13.82;5.93;;;4.80;99.90;;;;;;5092263;28;20490;-61
2023/12/14 10:39:42;;;;;;;17.15;6.35;;;4.70;99.90;;;;;;5088259;28;20054;-63
2023/12/14 10:42:11;;;;;;;16.13;5.70;;;4.80;99.90;;;;;;5068918;28;20045;-66
2023/12/14 10:44:52;;;;;;;17.45;6.45;;;4.80;99.90;;;;;;5083714;28;20063;-63
2023/12/14 10:47:23;;;;;;;13.73;5.70;;;4.90;99.90;;;;;;5086773;28;20119;-63
2023/12/14 10:49:55;;;;;;;11.13;4.22;;;5.00;99.90;;;;;;5083318;28;20061;-61
2023/12/14 10:52:24;;;;;;;10.57;5.20;;;5.00;99.90;;;;;;5072238;28;20405;-62
2023/12/14 10:55:00;;;;;;;11.32;5.43;;;5.20;99.90;;;;;;5084393;28;20044;-63
2023/12/14 10:57:29;;;;;;;9.00;3.70;;;5.40;99.90;;;;;;5087860;28;20036;-64
2023/12/14 11:00:00;;;;;;;12.75;3.83;;;5.60;99.90;;;;;;5091141;28;20040;-62
2023/12/14 11:02:28;;;;;;;7.75;3.42;;;5.80;99.90;;;;;;5084290;28;20047;-63
2023/12/14 11:04:58;;;;;;;10.90;3.42;;;5.90;99.90;;;;;;5075882;28;20063;-62
2023/12/14 11:08:01;;;;;;;8.40;3.53;;;6.10;99.90;;;;;;5069301;28;20045;-65
2023/12/14 11:10:43;;;;;;;5.80;3.25;;;6.20;99.90;;;;;;5080405;28;20059;-66
2023/12/14 11:13:13;;;;;;;18.20;9.30;;;6.30;99.90;;;;;;5086975;28;20386;-63
2023/12/14 11:15:50;;;;;;;16.50;9.32;;;6.40;99.90;;;;;;5087627;28;20056;-62
2023/12/14 11:18:18;;;;;;;11.68;5.78;;;6.50;99.90;;;;;;5087478;28;20052;-62
2023/12/14 11:20:46;;;;;;;17.38;6.80;;;6.50;99.90;;;;;;5083116;28;20048;-62
2023/12/14 11:23:19;;;;;;;15.93;8.32;;;6.50;99.90;;;;;;5086230;28;20044;-62
2023/12/14 11:25:56;;;;;;;16.83;7.80;;;6.60;99.90;;;;;;5100891;28;20040;-61
2023/12/14 11:28:27;;;;;;;8.53;5.13;;;6.80;99.90;;;;;;5098057;28;20055;-64
2023/12/14 11:30:56;;;;;;;7.97;4.47;;;7.10;99.90;;;;;;5090793;28;20066;-62
2023/12/14 11:33:27;;;;;;;8.25;4.20;;;7.50;99.90;;;;;;5083570;28;20048;-62
2023/12/14 11:35:58;;;;;;;6.15;2.65;;;7.90;99.90;;;;;;5080778;28;20048;-63
2023/12/14 11:38:25;;;;;;;6.72;4.90;;;8.30;99.90;;;;;;5079827;28;20044;-62
2023/12/14 11:40:53;;;;;;;10.73;6.20;;;8.40;99.90;;;;;;5095945;28;20056;-62
2023/12/14 11:43:23;;;;;;;16.92;7.07;;;8.30;99.90;;;;;;5094684;28;20052;-65
2023/12/14 11:45:52;;;;;;;14.13;7.55;;;8.30;99.90;;;;;;5090122;28;20059;-64
2023/12/14 11:48:20;;;;;;;7.85;5.03;;;8.10;99.90;;;;;;5091624;28;20055;-62
2023/12/14 11:50:48;;;;;;;6.38;3.78;;;8.10;99.90;;;;;;5089217;28;20055;-63
2023/12/14 11:53:17;;;;;;;4.57;2.85;;;8.00;99.90;;;;;;5097762;28;20532;-64
2023/12/14 11:55:46;;;;;;;5.78;3.85;;;7.90;99.90;;;;;;5090734;28;20066;-62
2023/12/14 11:58:15;;;;;;;6.70;3.95;;;7.90;99.90;;;;;;5090940;28;20405;-62
2023/12/14 12:00:46;;;;;;;5.18;3.35;;;7.80;99.90;;;;;;5089883;28;20051;-63
2023/12/14 12:03:19;;;;;;;8.25;3.58;;;7.70;99.90;;;;;;5090883;28;20044;-61
2023/12/14 12:05:50;;;;;;;8.50;4.00;;;7.70;99.90;;;;;;5082745;28;20064;-62
2023/12/14 12:08:20;;;;;;;11.02;3.83;;;7.60;99.90;;;;;;5084641;28;20044;-62
2023/12/14 12:10:50;;;;;;;8.48;3.95;;;7.60;99.90;;;;;;5090477;28;20040;-62
2023/12/14 12:13:20;;;;;;;14.75;4.07;;;7.60;99.90;;;;;;5099479;28;20047;-62
2023/12/14 12:15:48;;;;;;;8.43;4.70;;;7.60;99.90;;;;;;5090778;28;20040;-63
2023/12/14 12:18:17;;;;;;;11.13;5.75;;;7.60;99.90;;;;;;5089589;28;20053;-62
2023/12/14 12:20:46;;;;;;;12.90;6.13;;;7.70;99.90;;;;;;5085267;28;20048;-62
2023/12/14 12:23:14;;;;;;;8.10;5.15;;;7.60;99.90;;;;;;5085698;28;20059;-62
2023/12/14 12:25:42;;;;;;;11.00;4.78;;;7.70;99.90;;;;;;5085719;28;20056;-64
2023/12/14 12:28:10;;;;;;;9.23;5.10;;;7.80;99.90;;;;;;5077608;28;20486;-63
2023/12/14 12:30:38;;;;;;;5.38;3.45;;;8.20;99.90;;;;;;5087618;28;20048;-63
2023/12/14 12:33:08;;;;;;;4.38;2.80;;;8.80;99.90;;;;;;5092337;28;20054;-62
2023/12/14 12:35:36;;;;;;;6.05;2.70;;;9.30;99.90;;;;;;5087448;28;20060;-63
2023/12/14 12:38:04;;;;;;;7.68;3.58;;;9.90;99.90;;;;;;5082030;28;20056;-61
2023/12/14 12:40:33;;;;;;;3.28;1.92;;;10.30;99.90;;;;;;5087473;28;20044;-60
2023/12/14 12:43:02;;;;;;;6.60;2.58;;;10.70;99.90;;;;;;5091982;28;20040;-60
2023/12/14 12:45:32;;;;;;;6.97;4.07;;;11.20;99.90;;;;;;5094332;28;20059;-62
2023/12/14 12:48:00;;;;;;;6.47;2.97;;;11.60;99.90;;;;;;5088983;28;20048;-65
2023/12/14 12:50:27;;;;;;;4.35;2.40;;;12.00;99.90;;;;;;5089027;28;20634;-62
2023/12/14 12:52:56;;;;;;;5.47;2.53;;;12.30;99.90;;;;;;5084996;28;20059;-63